Time;durP1;ratioP1;P1;durP2;ratioP2;P2;SDS_P1;SDS_P2;PMS_P1;PMS_P2;Temp;Humidity;BMP_temperature;BMP_pressure;BME280_temperature;BME280_humidity;BME280_pressure;Samples;Min_cycle;Max_cycle;Signal;HPM_P1;HPM_P2
2023/09/17 00:00:58;;;;;;;5.68;3.63;;;;;;;17.55;100.00;101217.53;6251215;28;20049;-75
2023/09/17 00:04:00;;;;;;;6.18;4.00;;;;;;;17.57;100.00;101220.06;6251399;28;20053;-75
2023/09/17 00:07:03;;;;;;;7.70;4.25;;;;;;;17.53;100.00;101218.59;6251498;28;20191;-75
2023/09/17 00:10:05;;;;;;;6.90;4.45;;;;;;;17.45;100.00;101222.69;6250907;28;20463;-74
2023/09/17 00:13:08;;;;;;;4.53;3.60;;;;;;;17.37;100.00;101222.41;6251001;28;20056;-75
2023/09/17 00:16:10;;;;;;;6.05;4.07;;;;;;;17.39;100.00;101230.25;6251255;28;20050;-74
2023/09/17 00:19:11;;;;;;;7.10;3.85;;;;;;;17.39;100.00;101230.25;6250684;28;20053;-75
2023/09/17 00:22:14;;;;;;;7.35;4.05;;;;;;;17.38;100.00;101221.44;6251021;28;20053;-74
2023/09/17 00:25:16;;;;;;;7.07;3.90;;;;;;;17.36;100.00;101217.22;6250901;28;20092;-73
2023/09/17 00:28:19;;;;;;;7.90;3.63;;;;;;;17.34;100.00;101219.97;6250624;28;20434;-74
2023/09/17 00:31:20;;;;;;;6.07;3.90;;;;;;;17.31;100.00;101209.59;6250853;28;20054;-74
2023/09/17 00:34:21;;;;;;;11.38;5.18;;;;;;;17.34;100.00;101211.16;6250286;28;20056;-74
2023/09/17 00:37:23;;;;;;;7.80;4.63;;;;;;;17.37;100.00;101209.13;6250757;28;20108;-75
2023/09/17 00:40:29;;;;;;;8.40;4.45;;;;;;;17.38;100.00;101209.97;6250491;28;20050;-75
2023/09/17 00:43:31;;;;;;;10.48;5.20;;;;;;;17.39;100.00;101209.00;6250814;28;20045;-75
2023/09/17 00:46:33;;;;;;;9.73;5.22;;;;;;;17.32;100.00;101211.28;6250872;28;20049;-74
2023/09/17 00:49:35;;;;;;;7.50;4.35;;;;;;;17.29;100.00;101203.53;6250454;28;20049;-75
2023/09/17 00:52:38;;;;;;;6.53;4.50;;;;;;;17.29;100.00;101208.00;6250338;28;20045;-74
2023/09/17 00:55:40;;;;;;;8.35;4.70;;;;;;;17.28;100.00;101206.31;6250476;28;20492;-75
2023/09/17 00:58:43;;;;;;;8.23;4.15;;;;;;;17.27;100.00;101202.81;6250120;28;20049;-74
2023/09/17 01:01:45;;;;;;;8.35;4.68;;;;;;;17.22;100.00;101204.97;6250564;28;20049;-74
2023/09/17 01:04:50;;;;;;;9.38;5.03;;;;;;;17.18;100.00;101193.72;6250433;28;20049;-75
2023/09/17 01:07:52;;;;;;;10.82;4.63;;;;;;;17.19;100.00;101184.78;6250524;28;20053;-74
2023/09/17 01:10:55;;;;;;;6.53;4.60;;;;;;;17.20;100.00;101185.63;6268690;23;20046;-71
2023/09/17 01:14:07;;;;;;;9.52;4.78;;;;;;;17.22;100.00;101183.72;6225962;28;20057;-72
2023/09/17 01:17:10;;;;;;;7.60;4.63;;;;;;;17.20;100.00;101175.00;6225722;28;20050;-72
2023/09/17 01:20:24;;;;;;;10.80;5.78;;;;;;;17.17;100.00;101170.78;6225686;28;20053;-71
2023/09/17 01:23:30;;;;;;;6.97;4.70;;;;;;;17.20;100.00;101170.53;6201178;28;20054;-72
2023/09/17 01:26:36;;;;;;;7.72;5.07;;;;;;;17.19;100.00;101174.16;6201432;28;20046;-71
2023/09/17 01:29:40;;;;;;;7.22;4.32;;;;;;;17.22;100.00;101168.63;6200812;28;20050;-71
2023/09/17 01:32:42;;;;;;;8.80;5.25;;;;;;;17.21;100.00;101166.06;6201378;28;20430;-72
2023/09/17 01:35:52;;;;;;;9.93;6.18;;;;;;;17.18;100.00;101161.84;6201129;28;20351;-72
2023/09/17 01:39:00;;;;;;;10.65;6.30;;;;;;;17.16;100.00;101165.56;6201012;28;20050;-72
2023/09/17 01:42:04;;;;;;;14.32;7.18;;;;;;;17.02;100.00;101153.31;6201046;28;20054;-71
2023/09/17 01:45:09;;;;;;;11.98;6.38;;;;;;;17.03;100.00;101154.97;6203917;28;20054;-72
2023/09/17 01:48:11;;;;;;;12.52;6.07;;;;;;;17.05;100.00;101168.16;6202723;28;20054;-71
2023/09/17 01:51:13;;;;;;;22.25;6.55;;;;;;;17.05;100.00;101157.56;6205346;28;20100;-72
2023/09/17 01:54:15;;;;;;;10.50;6.35;;;;;;;17.09;100.00;101159.03;6205387;28;20057;-71
2023/09/17 01:57:16;;;;;;;10.93;6.68;;;;;;;17.12;100.00;101164.09;6205633;28;20050;-71
2023/09/17 02:00:19;;;;;;;10.85;6.38;;;;;;;17.09;100.00;101161.69;6205105;28;20046;-72
2023/09/17 02:03:21;;;;;;;10.63;5.82;;;;;;;17.03;100.00;101168.25;6205024;28;20458;-72
2023/09/17 02:06:22;;;;;;;10.40;5.63;;;;;;;17.03;100.00;101178.88;6205292;28;20057;-71
2023/09/17 02:09:24;;;;;;;10.70;6.68;;;;;;;17.03;100.00;101176.22;6204789;28;20053;-71
2023/09/17 02:12:25;;;;;;;11.25;6.07;;;;;;;17.04;100.00;101177.09;6204173;28;20054;-71
2023/09/17 02:15:28;;;;;;;11.15;6.50;;;;;;;17.04;100.00;101171.78;6205149;28;20097;-71
2023/09/17 02:18:29;;;;;;;11.30;5.85;;;;;;;16.99;100.00;101169.47;6204432;28;20050;-72
2023/09/17 02:21:31;;;;;;;8.40;6.05;;;;;;;16.93;100.00;101162.78;6204821;28;20453;-71
2023/09/17 02:24:32;;;;;;;7.93;5.40;;;;;;;16.91;100.00;101161.22;6204820;28;20124;-72
2023/09/17 02:27:34;;;;;;;9.05;5.72;;;;;;;16.89;100.00;101156.00;6204778;28;20057;-71
2023/09/17 02:30:37;;;;;;;13.25;7.38;;;;;;;16.84;100.00;101171.41;6204111;28;20050;-72
2023/09/17 02:33:38;;;;;;;9.68;5.72;;;;;;;16.84;100.00;101170.56;6204754;28;20054;-72
2023/09/17 02:36:40;;;;;;;12.30;6.45;;;;;;;16.83;100.00;101163.59;6204460;28;20054;-72
2023/09/17 02:39:42;;;;;;;10.25;6.45;;;;;;;16.84;100.00;101165.28;6203970;28;20176;-72
2023/09/17 02:42:44;;;;;;;9.02;5.63;;;;;;;16.81;100.00;101170.81;6204448;28;20056;-71
2023/09/17 02:45:49;;;;;;;8.48;5.40;;;;;;;16.81;100.00;101171.66;6204309;28;20055;-71
2023/09/17 02:48:53;;;;;;;8.55;4.93;;;;;;;16.82;100.00;101175.16;6204165;28;20473;-70
2023/09/17 02:51:55;;;;;;;8.80;5.70;;;;;;;16.80;100.00;101179.72;6204049;28;20054;-70
2023/09/17 02:54:56;;;;;;;8.43;5.60;;;;;;;16.79;100.00;101176.22;6204018;28;20132;-70
2023/09/17 02:57:57;;;;;;;13.48;5.80;;;;;;;16.80;100.00;101179.72;6203302;28;20054;-70
2023/09/17 03:01:01;;;;;;;9.07;5.25;;;;;;;16.80;100.00;101180.56;6203743;28;20046;-70
2023/09/17 03:04:02;;;;;;;8.60;5.60;;;;;;;16.80;100.00;101172.59;6203823;28;20057;-71
2023/09/17 03:07:04;;;;;;;8.48;5.57;;;;;;;16.83;100.00;101168.88;6203992;28;20054;-71
2023/09/17 03:10:10;;;;;;;9.43;4.97;;;;;;;16.83;100.00;101172.38;6203498;28;20450;-70
2023/09/17 03:13:14;;;;;;;7.68;5.05;;;;;;;16.81;100.00;101169.00;6203610;28;20050;-71
2023/09/17 03:16:18;;;;;;;8.48;4.90;;;;;;;16.81;100.00;101173.47;6203635;28;20058;-70
2023/09/17 03:19:20;;;;;;;7.85;4.82;;;;;;;16.78;100.00;101169.22;6203342;28;20139;-71
2023/09/17 03:22:21;;;;;;;9.27;5.63;;;;;;;16.82;100.00;101162.75;6203382;28;20080;-71
2023/09/17 03:25:23;;;;;;;8.68;4.35;;;;;;;16.83;100.00;101156.47;6203275;28;20054;-71
2023/09/17 03:28:25;;;;;;;7.65;5.10;;;;;;;16.83;100.00;101153.81;6203137;28;20049;-72
2023/09/17 03:31:27;;;;;;;9.23;5.65;;;;;;;16.83;100.00;101151.16;6203143;28;20051;-71
2023/09/17 03:34:29;;;;;;;6.93;4.72;;;;;;;16.82;100.00;101148.63;6203270;28;20057;-72
2023/09/17 03:37:30;;;;;;;8.73;5.00;;;;;;;16.82;100.00;101153.94;6203056;28;20057;-72
2023/09/17 03:40:32;;;;;;;7.28;5.05;;;;;;;16.76;100.00;101147.28;6202823;28;20049;-70
2023/09/17 03:43:34;;;;;;;7.75;5.18;;;;;;;16.74;100.00;101147.38;6202950;28;20467;-72
2023/09/17 03:46:38;;;;;;;10.88;5.82;;;;;;;16.73;100.00;101150.97;6200259;28;20145;-72
2023/09/17 03:49:39;;;;;;;6.38;4.25;;;;;;;16.79;100.00;101151.50;6197914;28;20065;-72
2023/09/17 03:52:43;;;;;;;7.65;5.25;;;;;;;16.82;100.00;101154.78;6202472;28;20054;-72
2023/09/17 03:55:45;;;;;;;9.73;5.22;;;;;;;16.79;100.00;101151.50;6202586;28;20054;-72
2023/09/17 03:58:48;;;;;;;8.60;5.50;;;;;;;16.76;100.00;101152.56;6202203;28;20086;-72
2023/09/17 04:01:50;;;;;;;9.43;5.38;;;;;;;16.73;100.00;101158.94;6202723;28;20052;-72
2023/09/17 04:04:52;;;;;;;6.35;4.63;;;;;;;16.72;100.00;101159.91;6202488;28;20458;-72
2023/09/17 04:07:53;;;;;;;7.90;5.30;;;;;;;16.76;100.00;101164.97;6202588;28;20050;-72
2023/09/17 04:10:55;;;;;;;9.63;6.13;;;;;;;16.76;100.00;101165.84;6201913;28;20462;-72
2023/09/17 04:13:56;;;;;;;11.52;5.43;;;;;;;16.76;100.00;101159.66;6202454;28;20050;-72
2023/09/17 04:17:02;;;;;;;10.48;5.63;;;;;;;16.71;100.00;101159.97;6202367;28;20054;-72
2023/09/17 04:20:05;;;;;;;10.00;5.75;;;;;;;16.67;100.00;101163.84;6202063;28;20050;-72
2023/09/17 04:23:06;;;;;;;9.27;5.53;;;;;;;16.68;100.00;101166.38;6202048;28;20141;-71
2023/09/17 04:26:07;;;;;;;6.50;4.75;;;;;;;16.68;100.00;101163.72;6202246;28;20454;-72
2023/09/17 04:29:10;;;;;;;8.00;4.78;;;;;;;16.68;100.00;101157.56;6193418;28;20051;-72
2023/09/17 04:32:13;;;;;;;8.30;4.85;;;;;;;16.69;100.00;101154.78;6201594;28;20046;-72
2023/09/17 04:35:17;;;;;;;9.13;5.30;;;;;;;16.67;100.00;101156.72;6194004;28;20576;-71
2023/09/17 04:38:18;;;;;;;9.88;4.53;;;;;;;16.68;100.00;101160.22;6201442;28;20057;-71
2023/09/17 04:41:19;;;;;;;6.45;4.38;;;;;;;16.69;100.00;101160.09;6201686;28;20054;-72
2023/09/17 04:44:21;;;;;;;9.43;5.53;;;;;;;16.68;100.00;101153.09;6201756;28;20081;-72
2023/09/17 04:47:24;;;;;;;6.40;4.38;;;;;;;16.65;100.00;101158.63;6201937;28;20439;-72
2023/09/17 04:50:25;;;;;;;6.30;4.50;;;;;;;16.64;100.00;101164.88;6201388;28;20046;-72
2023/09/17 04:53:27;;;;;;;10.63;6.22;;;;;;;16.65;100.00;101177.19;6201709;28;20062;-71
2023/09/17 04:56:28;;;;;;;7.47;4.97;;;;;;;16.63;100.00;101175.63;6201671;28;20077;-72
2023/09/17 04:59:30;;;;;;;6.55;4.32;;;;;;;16.64;100.00;101178.16;6197918;28;20056;-72
2023/09/17 05:02:32;;;;;;;7.32;4.68;;;;;;;16.64;100.00;101179.97;6188204;28;20062;-71
2023/09/17 05:05:34;;;;;;;6.57;4.13;;;;;;;16.67;100.00;101177.94;6189640;28;20054;-72
2023/09/17 05:08:35;;;;;;;6.78;4.63;;;;;;;16.72;100.00;101177.66;6188466;28;20343;-72
2023/09/17 05:11:37;;;;;;;7.00;4.43;;;;;;;16.70;100.00;101176.84;6188556;28;20053;-71
2023/09/17 05:14:38;;;;;;;8.80;5.28;;;;;;;16.70;100.00;101182.16;6189199;28;20051;-71
2023/09/17 05:17:41;;;;;;;10.27;5.40;;;;;;;16.67;100.00;101183.25;6188291;28;20350;-71
2023/09/17 05:20:44;;;;;;;8.82;5.10;;;;;;;16.67;100.00;101187.72;6193185;28;20046;-71
2023/09/17 05:23:45;;;;;;;8.13;5.47;;;;;;;16.70;100.00;101196.28;6192395;28;20075;-70
2023/09/17 05:26:47;;;;;;;7.22;4.30;;;;;;;16.77;100.00;101194.09;6192141;28;20371;-72
2023/09/17 05:29:48;;;;;;;7.53;4.85;;;;;;;16.81;100.00;101194.72;6194387;28;20049;-71
2023/09/17 05:32:51;;;;;;;9.30;5.25;;;;;;;16.77;100.00;101191.44;6192556;28;20043;-72
2023/09/17 05:35:56;;;;;;;7.43;4.70;;;;;;;16.77;100.00;101198.53;6193938;28;20446;-72
2023/09/17 05:38:58;;;;;;;9.68;5.60;;;;;;;16.76;100.00;101203.00;6189027;28;20464;-71
2023/09/17 05:41:59;;;;;;;10.35;6.00;;;;;;;16.67;100.00;101193.88;6187573;28;20047;-71
2023/09/17 05:45:00;;;;;;;6.70;4.70;;;;;;;16.68;100.00;101198.22;6203654;28;20050;-71
2023/09/17 05:48:04;;;;;;;5.80;4.57;;;;;;;16.67;100.00;101191.22;6203461;28;20081;-72
2023/09/17 05:51:05;;;;;;;8.90;4.78;;;;;;;16.67;100.00;101191.22;6205031;28;20053;-72
2023/09/17 05:54:07;;;;;;;8.05;4.95;;;;;;;16.65;100.00;101197.56;6205546;28;20057;-72
2023/09/17 05:57:08;;;;;;;6.88;4.97;;;;;;;16.59;100.00;101193.56;6205064;28;20358;-72
2023/09/17 06:00:10;;;;;;;7.90;5.18;;;;;;;16.55;100.00;101192.09;6205212;28;20057;-72
2023/09/17 06:03:13;;;;;;;11.60;6.07;;;;;;;16.56;100.00;101188.47;6205332;28;20064;-72
2023/09/17 06:06:15;;;;;;;7.05;4.70;;;;;;;16.66;100.00;101192.16;6205388;28;20057;-72
2023/09/17 06:09:16;;;;;;;8.73;4.72;;;;;;;16.68;100.00;101195.56;6204799;28;20050;-73
2023/09/17 06:12:17;;;;;;;7.13;4.97;;;;;;;16.72;100.00;101194.41;6203878;28;20500;-72
2023/09/17 06:15:19;;;;;;;7.75;4.88;;;;;;;16.73;100.00;101196.09;6204474;28;20061;-71
2023/09/17 06:18:22;;;;;;;7.85;5.03;;;;;;;16.73;100.00;101193.44;6201397;28;20038;-72
2023/09/17 06:21:23;;;;;;;8.68;5.13;;;;;;;16.81;100.00;101200.03;6203257;28;20053;-71
2023/09/17 06:24:24;;;;;;;8.98;5.60;;;;;;;16.90;100.00;101194.88;6203688;28;20046;-72
2023/09/17 06:27:26;;;;;;;6.55;5.05;;;;;;;16.92;100.00;101202.72;6204239;28;20054;-72
2023/09/17 06:30:27;;;;;;;7.80;4.38;;;;;;;16.95;100.00;101194.56;6198762;28;20351;-72
2023/09/17 06:33:31;;;;;;;8.07;5.07;;;;;;;16.95;100.00;101200.72;6203642;28;20058;-72
2023/09/17 06:36:32;;;;;;;8.52;5.47;;;;;;;16.95;100.00;101194.56;6204415;28;20465;-72
2023/09/17 06:39:34;;;;;;;6.03;3.92;;;;;;;16.97;100.00;101190.81;6204212;28;20125;-72
2023/09/17 06:42:35;;;;;;;6.85;4.20;;;;;;;17.02;100.00;101189.63;6203336;28;20451;-72
2023/09/17 06:45:36;;;;;;;7.78;5.22;;;;;;;17.03;100.00;101183.34;6204050;28;20039;-72
2023/09/17 06:48:39;;;;;;;7.28;4.75;;;;;;;17.04;100.00;101190.38;6203506;28;20046;-72
2023/09/17 06:51:41;;;;;;;9.43;5.65;;;;;;;17.01;100.00;101185.28;6203996;28;20057;-72
2023/09/17 06:54:43;;;;;;;7.90;5.38;;;;;;;17.00;100.00;101184.44;6204036;28;20370;-72
2023/09/17 06:57:44;;;;;;;9.82;5.95;;;;;;;17.01;100.00;101182.63;6201748;28;20051;-72
2023/09/17 07:00:48;;;;;;;7.00;4.05;;;;;;;17.04;100.00;101187.72;6201286;28;20046;-72
2023/09/17 07:03:52;;;;;;;7.60;4.97;;;;;;;17.07;100.00;101196.28;6194765;28;20049;-75
2023/09/17 07:06:55;;;;;;;8.15;5.40;;;;;;;17.11;100.00;101196.91;6197828;28;20064;-72
2023/09/17 07:09:56;;;;;;;11.60;5.72;;;;;;;17.17;100.00;101196.50;6201907;28;20370;-73
2023/09/17 07:12:58;;;;;;;9.65;5.63;;;;;;;17.22;100.00;101183.72;6241689;23;20074;-75
2023/09/17 07:15:59;;;;;;;11.45;5.63;;;;;;;17.14;100.00;101184.28;6226609;28;20050;-75
2023/09/17 07:19:03;;;;;;;8.95;5.10;;;;;;;17.20;100.00;101190.94;6226251;28;20442;-75
2023/09/17 07:22:10;;;;;;;8.40;5.43;;;;;;;17.18;100.00;101192.88;6226980;28;20472;-74
2023/09/17 07:25:11;;;;;;;8.00;5.32;;;;;;;17.23;100.00;101185.41;6228042;28;20496;-74
2023/09/17 07:28:13;;;;;;;8.30;5.40;;;;;;;17.23;100.00;101182.75;6227395;28;20054;-75
2023/09/17 07:31:14;;;;;;;8.40;5.97;;;;;;;17.29;100.00;101174.31;6227554;28;20046;-74
2023/09/17 07:34:17;;;;;;;8.23;5.10;;;;;;;17.38;100.00;101178.09;6227539;28;20064;-75
2023/09/17 07:37:20;;;;;;;6.97;4.78;;;;;;;17.43;100.00;101176.78;6227747;28;20061;-75
2023/09/17 07:40:21;;;;;;;6.95;5.15;;;;;;;17.49;100.00;101171.00;6227088;28;20398;-75
2023/09/17 07:43:23;;;;;;;7.28;5.18;;;;;;;17.56;100.00;101174.03;6227263;28;20057;-76
2023/09/17 07:46:24;;;;;;;8.32;4.95;;;;;;;17.64;100.00;101173.47;6228034;28;20054;-75
2023/09/17 07:49:29;;;;;;;10.45;6.15;;;;;;;17.68;100.00;101181.09;6228679;28;20042;-75
2023/09/17 07:52:30;;;;;;;8.32;4.85;;;;;;;17.75;100.00;101181.50;6229040;28;20050;-75
2023/09/17 07:55:31;;;;;;;7.00;5.07;;;;;;;17.86;100.00;101170.03;6228521;28;20046;-75
2023/09/17 07:58:33;;;;;;;10.35;5.75;;;;;;;17.95;100.00;101164.00;6227820;28;20054;-76
2023/09/17 08:01:34;;;;;;;8.10;5.10;;;;;;;18.06;100.00;101168.50;6227047;28;20077;-76
2023/09/17 08:04:37;;;;;;;9.30;5.10;;;;;;;18.15;100.00;101165.09;6227258;28;20053;-77
2023/09/17 08:07:40;;;;;;;7.45;4.53;;;;;;;18.25;100.00;101163.41;6226935;28;20054;-75
2023/09/17 08:10:41;;;;;;;8.63;5.55;;;;;;;18.37;100.00;101159.78;6226580;28;20505;-76
2023/09/17 08:13:43;;;;;;;5.70;4.20;;;;;;;18.49;100.00;101164.13;6226846;28;20350;-75
2023/09/17 08:16:44;;;;;;;5.50;4.38;;;;;;;18.61;100.00;101166.78;6226862;28;20061;-75
2023/09/17 08:19:47;;;;;;;6.13;4.03;;;;;;;18.66;100.00;101165.41;6226314;28;20121;-75
2023/09/17 08:22:50;;;;;;;5.60;4.25;;;;;;;18.74;100.00;101165.69;6226987;28;20050;-75
2023/09/17 08:25:52;;;;;;;7.55;4.22;;;;;;;18.87;100.00;101160.22;6226545;28;20057;-75
2023/09/17 08:28:55;;;;;;;7.03;4.60;;;;;;;18.97;100.00;101168.28;6226490;28;20056;-75
2023/09/17 08:31:58;;;;;;;6.90;4.45;;;;;;;19.05;100.00;101170.34;6226489;28;20049;-77
2023/09/17 08:35:01;;;;;;;10.80;4.45;;;;;;;19.13;100.00;101171.41;6226311;28;20046;-78
2023/09/17 08:38:02;;;;;;;5.40;4.25;;;;;;;19.25;100.00;101172.19;6226362;28;20054;-78
2023/09/17 08:41:07;;;;;;;7.22;4.38;;;;;;;19.35;100.00;101173.13;6225951;28;20045;-77
2023/09/17 08:44:09;;;;;;;4.90;3.75;;;;;;;19.44;100.00;101175.03;6226308;28;20056;-77
2023/09/17 08:47:10;;;;;;;5.63;3.75;;;;;;;19.54;100.00;101174.25;6226159;28;20430;-77
2023/09/17 08:50:13;;;;;;;5.72;3.97;;;;;;;19.57;100.00;101169.50;6226059;28;20054;-76
2023/09/17 08:53:20;;;;;;;5.20;3.95;;;;;;;19.62;100.00;101167.34;6225479;28;20133;-76
2023/09/17 08:56:22;;;;;;;5.15;3.55;;;;;;;19.74;100.00;101160.09;6226230;28;20050;-76
2023/09/17 08:59:27;;;;;;;5.25;3.55;;;;;;;19.74;100.00;101163.59;6225657;28;20054;-77
2023/09/17 09:02:32;;;;;;;6.30;4.10;;;;;;;19.79;100.00;101154.38;6226181;28;20108;-77
2023/09/17 09:05:37;;;;;;;6.88;3.97;;;;;;;19.79;100.00;101157.88;6225882;28;20370;-78
2023/09/17 09:08:39;;;;;;;4.80;3.28;;;;;;;19.83;100.00;101156.66;6225888;28;20049;-78
2023/09/17 09:11:40;;;;;;;4.95;3.00;;;;;;;19.90;100.00;101160.50;6225851;28;20050;-78
2023/09/17 09:14:44;;;;;;;4.80;3.60;;;;;;;20.06;100.00;101154.66;6225849;28;20054;-78
2023/09/17 09:17:46;;;;;;;5.65;3.58;;;;;;;20.13;100.00;101157.66;6225885;28;20086;-78
2023/09/17 09:20:49;;;;;;;5.38;4.05;;;;;;;20.22;100.00;101154.19;6225264;28;20105;-78
2023/09/17 09:23:51;;;;;;;5.15;3.42;;;;;;;20.18;100.00;101153.59;6225716;28;20057;-78
2023/09/17 09:26:52;;;;;;;6.13;4.30;;;;;;;20.15;100.00;101148.53;6225552;28;20343;-78
2023/09/17 09:29:54;;;;;;;5.05;3.40;;;;;;;20.16;100.00;101155.53;6225820;28;20053;-78
2023/09/17 09:32:56;;;;;;;5.00;3.75;;;;;;;20.19;100.00;101147.28;6225533;28;20460;-78
2023/09/17 09:36:00;;;;;;;4.85;3.20;;;;;;;20.33;100.00;101142.53;6225920;28;20052;-78
2023/09/17 09:39:02;;;;;;;5.88;3.70;;;;;;;20.48;100.00;101144.75;6225400;28;20141;-78
2023/09/17 09:42:05;;;;;;;4.93;3.67;;;;;;;20.52;100.00;101147.97;6225289;28;20143;-78
2023/09/17 09:45:13;;;;;;;4.20;2.80;;;;;;;20.57;100.00;101140.41;6225525;28;20123;-78
2023/09/17 09:48:14;;;;;;;5.78;3.58;;;;;;;20.62;100.00;101131.97;6225242;28;20061;-78
2023/09/17 09:51:18;;;;;;;7.65;3.58;;;;;;;20.60;100.00;101128.59;6225266;28;20350;-78
2023/09/17 09:54:20;;;;;;;6.32;3.10;;;;;;;20.59;100.00;101130.44;6225655;28;20046;-78
2023/09/17 09:57:24;;;;;;;3.90;2.97;;;;;;;20.54;100.00;101126.50;6225367;28;20050;-77
2023/09/17 10:00:28;;;;;;;4.22;2.90;;;;;;;20.52;100.00;101129.28;6224937;28;20050;-77
2023/09/17 10:03:33;;;;;;;3.40;2.80;;;;;;;20.43;100.00;101133.56;6225341;28;20057;-77
2023/09/17 10:06:37;;;;;;;3.90;2.90;;;;;;;20.37;100.00;101136.81;6228576;28;20053;-78
2023/09/17 10:09:39;;;;;;;4.85;3.10;;;;;;;20.34;100.00;101137.06;6229428;28;20057;-78
2023/09/17 10:12:41;;;;;;;4.75;3.20;;;;;;;20.34;100.00;101141.56;6229351;28;20054;-77
2023/09/17 10:15:42;;;;;;;5.65;3.30;;;;;;;20.29;100.00;101131.28;6229611;28;20053;-77
2023/09/17 10:18:45;;;;;;;6.38;3.50;;;;;;;20.28;100.00;101132.28;6229108;28;20442;-78
2023/09/17 10:21:49;;;;;;;5.63;3.47;;;;;;;20.23;100.00;101131.84;6229239;28;20050;-78
2023/09/17 10:24:52;;;;;;;5.05;3.50;;;;;;;20.14;100.00;101129.97;6229088;28;20072;-77
2023/09/17 10:27:53;;;;;;;4.95;3.45;;;;;;;20.11;100.00;101136.41;6229195;28;20327;-77
2023/09/17 10:30:57;;;;;;;4.65;3.70;;;;;;;20.07;100.00;101118.97;6228892;28;20450;-76
2023/09/17 10:34:01;;;;;;;6.80;3.53;;;;;;;20.07;100.00;101118.97;6229286;28;20050;-78
2023/09/17 10:37:05;;;;;;;5.43;3.40;;;;;;;20.10;100.00;101112.53;6229073;28;20054;-78
2023/09/17 10:40:10;;;;;;;8.13;3.90;;;;;;;20.10;100.00;101109.88;6228776;28;20427;-78
2023/09/17 10:43:12;;;;;;;8.02;4.32;;;;;;;20.13;100.00;101104.28;6228806;28;20073;-78
2023/09/17 10:46:14;;;;;;;5.50;3.92;;;;;;;20.10;100.00;101105.38;6228931;28;20080;-78
2023/09/17 10:49:17;;;;;;;7.55;4.15;;;;;;;20.11;100.00;101104.41;6228507;28;20057;-78
2023/09/17 10:52:22;;;;;;;5.35;3.97;;;;;;;20.11;100.00;101103.56;6228385;28;20056;-78
2023/09/17 10:55:27;;;;;;;5.90;3.90;;;;;;;20.12;100.00;101100.78;6228501;28;20373;-76
2023/09/17 10:58:34;;;;;;;5.57;3.47;;;;;;;20.13;100.00;101094.44;6228222;28;20346;-78
2023/09/17 11:01:37;;;;;;;5.63;3.38;;;;;;;20.11;100.00;101106.22;6228460;28;20049;-78
2023/09/17 11:04:40;;;;;;;5.93;3.70;;;;;;;20.07;100.00;101107.47;6228298;28;20050;-78
2023/09/17 11:07:43;;;;;;;5.95;3.50;;;;;;;20.12;100.00;101098.09;6228352;28;20158;-78
2023/09/17 11:10:45;;;;;;;5.35;3.08;;;;;;;20.19;100.00;101106.41;6227891;28;20132;-78
2023/09/17 11:13:47;;;;;;;5.85;3.92;;;;;;;20.29;100.00;101104.59;6227985;28;20053;-78
2023/09/17 11:16:49;;;;;;;7.25;4.38;;;;;;;20.43;100.00;101096.19;6227523;28;20056;-77
2023/09/17 11:19:50;;;;;;;5.28;3.65;;;;;;;20.61;100.00;101100.91;6227978;28;20050;-77
2023/09/17 11:22:53;;;;;;;5.65;4.03;;;;;;;20.75;100.00;101105.84;6228368;28;20042;-77
2023/09/17 11:25:56;;;;;;;4.45;3.67;;;;;;;20.90;100.00;101099.13;6227853;28;20311;-78
2023/09/17 11:28:58;;;;;;;4.93;3.60;;;;;;;21.06;100.00;101108.41;6227465;28;20085;-76
2023/09/17 11:32:01;;;;;;;7.65;3.22;;;;;;;21.27;100.00;101099.25;6227648;28;20050;-76
2023/09/17 11:35:04;;;;;;;4.05;3.30;;;;;;;21.58;100.00;101091.06;6227764;28;20144;-77
2023/09/17 11:38:07;;;;;;;4.82;3.28;;;;;;;21.95;100.00;101087.56;6227460;28;20046;-77
2023/09/17 11:41:10;;;;;;;4.38;2.90;;;;;;;22.33;100.00;101083.88;6227363;28;20065;-76
2023/09/17 11:44:12;;;;;;;4.38;3.13;;;;;;;22.52;100.00;101083.75;6227393;28;20064;-76
2023/09/17 11:47:15;;;;;;;4.63;3.10;;;;;;;22.45;100.00;101081.84;6227427;28;20057;-77
2023/09/17 11:50:18;;;;;;;5.30;3.13;;;;;;;22.39;100.00;101080.63;6225844;28;20046;-74
2023/09/17 11:53:21;;;;;;;4.25;2.97;;;;;;;22.39;100.00;101079.75;6226884;28;20053;-74
2023/09/17 11:56:23;;;;;;;4.60;2.60;;;;;;;22.50;100.00;101079.53;6225402;28;20434;-74
2023/09/17 11:59:26;;;;;;;3.67;2.85;;;;;;;22.51;100.00;101075.88;6225873;28;20339;-74
2023/09/17 12:02:29;;;;;;;5.30;3.00;;;;;;;22.59;100.00;101084.00;6227005;28;20049;-75
2023/09/17 12:05:30;;;;;;;3.90;2.95;;;;;;;22.71;100.00;101069.41;6220308;28;20046;-74
2023/09/17 12:08:33;;;;;;;2.53;2.30;;;;;;;22.82;100.00;101071.00;6226022;28;20049;-73
2023/09/17 12:11:36;;;;;;;2.83;2.25;;;;;;;22.93;100.00;101068.09;6224791;28;20042;-74
2023/09/17 12:14:37;;;;;;;3.90;2.78;;;;;;;23.19;100.00;101064.63;6224874;28;20053;-74
2023/09/17 12:17:41;;;;;;;4.47;2.92;;;;;;;23.58;100.00;101067.75;6225298;28;20049;-75
2023/09/17 12:20:51;;;;;;;3.80;2.47;;;;;;;24.14;100.00;101060.16;6224803;28;20124;-74
2023/09/17 12:23:57;;;;;;;2.83;2.20;;;;;;;24.60;100.00;101057.94;6225445;28;20430;-75
2023/09/17 12:27:19;;;;;;;4.03;2.28;;;;;;;24.79;100.00;101055.78;6226343;28;20064;-75
2023/09/17 12:30:21;;;;;;;3.65;2.30;;;;;;;25.08;100.00;101059.03;6223763;28;20053;-74
2023/09/17 12:33:22;;;;;;;3.15;2.55;;;;;;;25.42;100.00;101042.66;6224981;28;20054;-74
2023/09/17 12:36:24;;;;;;;7.15;1.92;;;;;;;25.65;100.00;101049.00;6226189;28;20105;-74
2023/09/17 12:39:26;;;;;;;3.78;2.20;;;;;;;25.63;100.00;101036.75;6217875;28;20046;-75
2023/09/17 12:42:28;;;;;;;5.40;2.53;;;;;;;25.20;100.00;101038.81;6224919;28;20073;-77
2023/09/17 12:45:30;;;;;;;4.15;2.60;;;;;;;25.37;100.00;101040.50;6226343;28;20056;-74
2023/09/17 12:48:32;;;;;;;2.58;1.98;;;;;;;25.53;100.00;101040.47;6225763;28;20056;-75
2023/09/17 12:51:35;;;;;;;2.15;1.95;;;;;;;25.78;100.00;101029.63;6226079;28;20053;-75
2023/09/17 12:54:37;;;;;;;3.15;2.13;;;;;;;25.93;100.00;101027.88;6225953;28;20057;-75
2023/09/17 12:57:39;;;;;;;3.58;2.45;;;;;;;26.04;100.00;101023.97;6225869;28;20057;-75
2023/09/17 13:00:41;;;;;;;2.88;2.25;;;;;;;26.27;100.00;101026.72;6225603;28;20354;-75
2023/09/17 13:03:54;;;;;;;2.88;2.22;;;;;;;26.42;100.00;101011.44;6225744;28;20050;-75
2023/09/17 13:06:55;;;;;;;2.10;1.83;;;;;;;26.79;100.00;101010.69;6225843;28;20346;-75
2023/09/17 13:09:59;;;;;;;3.70;2.15;;;;;;;26.89;100.00;101004.19;6225462;28;20046;-75
2023/09/17 13:13:04;;;;;;;3.42;2.40;;;;;;;27.01;100.00;101000.88;6260784;23;20342;-71
2023/09/17 13:16:05;;;;;;;2.67;2.08;;;;;;;27.23;100.00;100993.78;6249864;28;20507;-70
2023/09/17 13:19:07;;;;;;;2.50;2.03;;;;;;;27.21;100.00;100995.00;6249952;28;20048;-70
2023/09/17 13:22:08;;;;;;;3.35;2.30;;;;;;;27.34;100.00;100981.69;6246559;28;20060;-70
2023/09/17 13:25:11;;;;;;;2.50;2.05;;;;;;;27.29;100.00;100987.63;6227907;28;20050;-70
2023/09/17 13:28:14;;;;;;;2.25;1.80;;;;;;;27.44;100.00;100995.78;6225430;28;20053;-71
2023/09/17 13:31:15;;;;;;;3.55;2.30;;;;;;;27.40;100.00;100988.22;6227259;28;20042;-70
2023/09/17 13:34:19;;;;;;;3.13;2.08;;;;;;;27.64;100.00;100990.63;6225363;28;20042;-71
2023/09/17 13:37:21;;;;;;;3.25;2.20;;;;;;;27.73;100.00;100989.53;6225480;28;20461;-71
2023/09/17 13:40:24;;;;;;;3.67;2.20;;;;;;;27.90;100.00;100992.88;6226726;28;20065;-70
2023/09/17 13:43:26;;;;;;;2.33;1.90;;;;;;;28.03;100.00;100989.50;6230079;28;20104;-71
2023/09/17 13:46:30;;;;;;;3.35;2.22;;;;;;;28.14;100.00;100991.69;6230154;28;20438;-70
2023/09/17 13:49:32;;;;;;;2.30;1.95;;;;;;;28.22;100.00;100990.75;6229414;28;20057;-70
2023/09/17 13:52:33;;;;;;;3.35;2.10;;;;;;;28.14;100.00;100986.28;6228871;28;20050;-70
2023/09/17 13:55:36;;;;;;;2.30;1.90;;;;;;;28.12;100.00;100991.03;6229468;28;20053;-70
2023/09/17 13:58:37;;;;;;;2.38;1.88;;;;;;;28.04;100.00;100996.56;6229603;28;20053;-70